Meteo Giornale » Osservazioni meteo Canada » Fredericton N B
ore: 16:00 - Osservazioni Meteo Fredericton N B
Lat. 45° 52' N Lon. 66° 32' W Alt. 17 metri s.l.m.
23 °C
Molto Nuvoloso
Temp. 24 Ore
8 °C
23 °C
Est/Nord-Est
9.3 Km/h
Dew point 11 °C
Umidità 46 %
Visibilità 14 Km
Il sole sorge alle ore 06:47
Il sole tramonta alle ore 20:04
| Data e Ora | Cielo e Fenomeni | T °C | DP °C | Um. % | Pres. hPa | Vis. km | Vento km/h | |
|---|---|---|---|---|---|---|---|---|
| Oggi h: 16:00 | Molto Nuvoloso | 23 | 11 | 46 | 1019 | 14 | E/NE 9.3 | |
| Oggi h: 15:00 | Coperto | 21 | 11 | 52 | 1018 | 14 | E/NE 7.4 | |
| Oggi h: 14:00 | Molto Nuvoloso | 22 | 11 | 49 | 1018 | 14 | N 3.7 | |
| Oggi h: 13:00 | Molto Nuvoloso | 22 | 11 | 49 | 1019 | 14 | N/NO 18.5 | |
| Oggi h: 12:00 | Sereno | 22 | 12 | 53 | 1019 | 14 | N 5.5 | |
| Oggi h: 11:00 | Sereno | 19 | 12 | 63 | 1019 | 14 | N 3.7 | |
| Oggi h: 10:00 | Sereno | 17 | 12 | 72 | 1019 | 13 | N 3.7 | |
| Oggi h: 09:00 | Sereno | 14 | 11 | 82 | 1019 | 14 | N 3.7 | |
| Oggi h: 08:00 | Sereno | 11 | 10 | 93 | 1019 | 14 | N 0 | |
| Oggi h: 07:00 | Sereno | 8 | 8 | 100 | 1018 | 14 | N 0 | |
| Oggi h: 06:13 | Foschia | 8 | 8 | 100 | 1018 | 10 | N 0 | |
| Oggi h: 06:10 | Foschia | 8 | 8 | 100 | 1018 | 5 | N 0 | |
| Oggi h: 06:04 | Foschia | 8 | 8 | 100 | 1018 | 2 | N 3.7 | |
| Oggi h: 06:03 | Foschia | 8 | 8 | 100 | 1018 | 5 | N 3.7 | |
| Oggi h: 06:00 | Sereno | 9 | 9 | 100 | 1018 | 11 | N 0 | |
| Oggi h: 05:07 | Sereno | 9 | 9 | 100 | 1018 | 14 | N 3.7 | |
| Oggi h: 05:00 | Foschia | 9 | 9 | 100 | 1018 | 6 | N 0 | |
| Oggi h: 04:57 | Foschia | 8 | 8 | 100 | 1018 | 6 | N 3.7 | |
| Oggi h: 04:00 | Poco Nuvoloso | 10 | 9 | 93 | 1018 | 14 | N 0 | |
| Oggi h: 03:00 | Sereno | 11 | 10 | 93 | 1017 | 14 | N 3.7 | |
| Oggi h: 02:00 | Sereno | 12 | 11 | 93 | 1017 | 14 | N 5.5 | |
| Oggi h: 01:00 | Sereno | 13 | 12 | 93 | 1017 | 14 | N 3.7 | |
| Oggi h: 00:00 | Coperto | 16 | 12 | 77 | 1017 | 14 | NO 9.3 | |
| Ieri h: 23:00 | Coperto | 16 | 13 | 82 | 1016 | 14 | N 5.5 | |
| Ieri h: 22:00 | Coperto | 15 | 13 | 87 | 1016 | 14 | N 3.7 | |
| Ieri h: 21:00 | Sereno | 16 | 13 | 82 | 1016 | 14 | N 5.5 | |
| Ieri h: 20:00 | Sereno | 19 | 13 | 68 | 1016 | 14 | O 7.4 | |
| Ieri h: 19:00 | Sereno | 21 | 13 | 60 | 1016 | 14 | O 7.4 | |
| Ieri h: 18:00 | Sereno | 23 | 11 | 46 | 1015 | 14 | O/NO 13 | |
| Ieri h: 17:00 | Sereno | 23 | 12 | 49 | 1016 | 14 | O/NO 13 | |



